createdAt,value
2023-04-28T00:01:28.050Z,9.90
2023-04-28T00:03:58.199Z,10.02
2023-04-28T00:06:24.980Z,9.27
2023-04-28T00:08:51.646Z,9.60
2023-04-28T00:11:18.278Z,10.25
2023-04-28T00:13:44.808Z,10.55
2023-04-28T00:16:11.522Z,10.40
2023-04-28T00:18:38.027Z,10.00
2023-04-28T00:21:04.852Z,9.40
2023-04-28T00:23:31.330Z,9.35
2023-04-28T00:25:58.065Z,10.27
2023-04-28T00:30:54.411Z,9.60
2023-04-28T00:33:21.073Z,9.82
2023-04-28T00:35:47.766Z,10.30
2023-04-28T00:38:14.335Z,10.52
2023-04-28T00:40:41.071Z,10.40
2023-04-28T00:43:07.745Z,9.93
2023-04-28T00:45:34.666Z,10.50
2023-04-28T00:48:01.295Z,10.50
2023-04-28T00:50:28.380Z,10.15
2023-04-28T00:52:54.944Z,10.52
2023-04-28T00:55:22.598Z,10.52
2023-04-28T00:57:49.609Z,10.15
2023-04-28T01:00:16.372Z,11.15
2023-04-28T01:02:43.007Z,10.77
2023-04-28T01:05:10.304Z,10.80
2023-04-28T01:07:37.781Z,9.88
2023-04-28T01:10:07.109Z,10.68
2023-04-28T01:12:34.403Z,10.88
2023-04-28T01:15:01.643Z,10.80
2023-04-28T01:17:29.277Z,10.45
2023-04-28T01:19:56.536Z,11.77
2023-04-28T01:22:23.044Z,10.98
2023-04-28T01:24:49.648Z,10.27
2023-04-28T01:27:17.234Z,11.30
2023-04-28T01:29:44.266Z,10.65
2023-04-28T01:32:11.182Z,11.18
2023-04-28T01:34:39.473Z,11.75
2023-04-28T01:37:07.182Z,10.85
2023-04-28T01:39:36.624Z,12.30
2023-04-28T01:42:03.690Z,11.82
2023-04-28T01:44:30.363Z,10.70
2023-04-28T01:46:56.987Z,10.50
2023-04-28T01:49:24.137Z,10.30
2023-04-28T01:51:50.748Z,11.18
2023-04-28T01:54:17.560Z,11.40
2023-04-28T01:56:44.308Z,10.73
2023-04-28T01:59:15.248Z,11.20
2023-04-28T02:01:41.858Z,11.05
2023-04-28T02:04:08.733Z,11.30
2023-04-28T02:06:37.268Z,11.70
2023-04-28T02:09:04.003Z,11.95
2023-04-28T02:11:33.484Z,11.45
2023-04-28T02:14:00.361Z,11.32
2023-04-28T02:16:26.918Z,11.80
2023-04-28T02:18:53.720Z,11.40
2023-04-28T02:21:20.235Z,11.77
2023-04-28T02:23:46.889Z,12.15
2023-04-28T02:26:13.541Z,11.23
2023-04-28T02:28:41.783Z,12.15
2023-04-28T02:31:09.359Z,11.70
2023-04-28T02:33:36.327Z,11.93
2023-04-28T02:36:03.755Z,12.00
2023-04-28T02:38:30.456Z,12.63
2023-04-28T02:41:01.052Z,12.80
2023-04-28T02:43:28.252Z,13.20
2023-04-28T02:45:55.010Z,12.75
2023-04-28T02:48:24.196Z,13.23
2023-04-28T02:50:51.283Z,12.23
2023-04-28T02:53:17.937Z,12.75
2023-04-28T02:55:44.836Z,12.32
2023-04-28T02:58:11.581Z,13.48
2023-04-28T03:00:38.038Z,14.00
2023-04-28T03:03:04.887Z,13.95
2023-04-28T03:05:31.729Z,13.48
2023-04-28T03:07:58.964Z,12.65
2023-04-28T03:10:25.674Z,13.90
2023-04-28T03:12:52.259Z,12.80
2023-04-28T03:15:18.751Z,13.40
2023-04-28T03:17:45.730Z,12.35
2023-04-28T03:20:13.053Z,13.95
2023-04-28T03:22:40.000Z,14.13
2023-04-28T03:25:07.597Z,12.70
2023-04-28T03:27:40.810Z,14.05
2023-04-28T03:30:07.682Z,12.73
2023-04-28T03:32:34.401Z,13.18
2023-04-28T03:35:01.972Z,13.63
2023-04-28T03:37:28.581Z,13.85
2023-04-28T03:39:55.337Z,12.93
2023-04-28T03:42:21.925Z,12.93
2023-04-28T03:45:15.957Z,13.13
2023-04-28T03:47:42.526Z,14.25
2023-04-28T03:50:09.780Z,13.35
2023-04-28T03:52:36.369Z,12.85
2023-04-28T03:55:03.241Z,12.85
2023-04-28T03:57:29.805Z,13.30
2023-04-28T03:59:56.880Z,13.52
2023-04-28T04:02:23.817Z,13.52
2023-04-28T04:04:50.796Z,13.82
2023-04-28T04:07:17.777Z,14.50
2023-04-28T04:09:44.303Z,14.20
2023-04-28T04:12:11.088Z,14.15
2023-04-28T04:14:37.758Z,14.23
2023-04-28T04:17:04.455Z,13.88
2023-04-28T04:19:31.317Z,13.68
2023-04-28T04:21:57.881Z,14.63
2023-04-28T04:24:25.000Z,15.65
2023-04-28T04:26:51.949Z,16.02
2023-04-28T04:29:39.373Z,15.25
2023-04-28T04:32:12.774Z,16.23
2023-04-28T04:34:40.885Z,15.25
2023-04-28T04:37:07.390Z,16.23
2023-04-28T04:39:37.123Z,16.83
2023-04-28T04:42:16.743Z,17.98
2023-04-28T04:45:00.696Z,16.35
2023-04-28T04:47:29.975Z,16.27
2023-04-28T04:49:56.696Z,17.42
2023-04-28T04:52:23.709Z,17.38
2023-04-28T04:54:50.888Z,16.60
2023-04-28T04:57:18.064Z,17.05
2023-04-28T05:00:04.791Z,17.98
2023-04-28T05:02:31.817Z,17.85
2023-04-28T05:05:08.194Z,17.83
2023-04-28T05:07:46.684Z,18.05
2023-04-28T05:10:13.765Z,18.40
2023-04-28T05:12:41.846Z,19.80
2023-04-28T05:15:08.678Z,19.15
2023-04-28T05:17:39.335Z,19.83
2023-04-28T05:20:06.311Z,19.05
2023-04-28T05:22:32.916Z,20.88
2023-04-28T05:24:59.558Z,20.42
2023-04-28T05:27:26.686Z,22.95
2023-04-28T05:29:53.836Z,23.25
2023-04-28T05:32:20.482Z,23.42
2023-04-28T05:34:47.229Z,22.73
2023-04-28T05:37:14.067Z,24.00
2023-04-28T05:39:42.844Z,23.35
2023-04-28T05:42:09.458Z,24.27
2023-04-28T05:44:36.135Z,24.60
2023-04-28T05:47:02.695Z,24.77
2023-04-28T05:49:29.400Z,24.02
2023-04-28T05:51:56.018Z,24.02
2023-04-28T05:54:22.710Z,24.90
2023-04-28T05:56:53.317Z,23.58
2023-04-28T05:59:19.977Z,25.83
2023-04-28T06:01:46.560Z,25.73
2023-04-28T06:04:13.867Z,26.30
2023-04-28T06:06:41.486Z,26.95
2023-04-28T06:09:08.138Z,28.27
2023-04-28T06:11:34.744Z,25.70
2023-04-28T06:14:01.250Z,25.45
2023-04-28T06:16:28.697Z,25.23
2023-04-28T06:18:55.369Z,24.60
2023-04-28T06:21:22.452Z,23.88
2023-04-28T06:23:49.167Z,25.42
2023-04-28T06:26:18.065Z,24.35
2023-04-28T06:28:44.973Z,23.85
2023-04-28T06:31:11.586Z,23.33
2023-04-28T06:33:39.366Z,24.02
2023-04-28T06:36:06.432Z,22.00
2023-04-28T06:38:32.993Z,22.38
2023-04-28T06:40:59.478Z,22.17
2023-04-28T06:43:28.776Z,21.95
2023-04-28T06:46:04.300Z,20.75
2023-04-28T06:48:31.197Z,21.33
2023-04-28T06:50:57.784Z,20.67
2023-04-28T06:53:24.472Z,20.05
2023-04-28T06:55:51.678Z,20.08
2023-04-28T06:58:21.025Z,19.50
2023-04-28T07:00:48.116Z,18.92
2023-04-28T07:03:14.781Z,20.45
2023-04-28T07:05:41.384Z,19.90
2023-04-28T07:08:07.903Z,17.92
2023-04-28T07:10:34.607Z,8.73
2023-04-28T07:13:01.166Z,4.00
2023-04-28T07:15:28.036Z,2.25
2023-04-28T07:17:54.747Z,2.42
2023-04-28T07:20:21.582Z,2.05
2023-04-28T07:22:48.700Z,2.15
2023-04-28T07:25:15.549Z,2.00
2023-04-28T07:27:42.110Z,2.63
2023-04-28T07:30:15.164Z,1.80
2023-04-28T07:32:48.026Z,1.85
2023-04-28T07:35:14.718Z,1.58
2023-04-28T07:37:41.401Z,1.73
2023-04-28T07:40:08.382Z,1.60
2023-04-28T07:42:35.047Z,1.50
2023-04-28T07:45:01.674Z,1.40
2023-04-28T07:47:29.421Z,1.65
2023-04-28T07:49:56.168Z,1.50
2023-04-28T07:52:22.812Z,1.30
2023-04-28T07:54:49.692Z,1.33
2023-04-28T07:57:16.259Z,1.35
2023-04-28T07:59:42.925Z,1.65
2023-04-28T08:02:13.501Z,1.50
2023-04-28T08:04:40.253Z,1.25
2023-04-28T08:07:07.024Z,1.40
2023-04-28T08:09:35.579Z,1.88
2023-04-28T08:12:02.307Z,1.48
2023-04-28T08:14:29.508Z,1.67
2023-04-28T08:16:57.285Z,0.95
2023-04-28T08:19:24.090Z,1.05
2023-04-28T08:21:50.691Z,0.98
2023-04-28T08:24:17.578Z,1.60
2023-04-28T08:26:44.282Z,1.00
2023-04-28T08:29:10.952Z,1.20
2023-04-28T08:31:38.270Z,1.55
2023-04-28T08:34:04.817Z,1.40
2023-04-28T08:36:35.124Z,1.63
2023-04-28T08:39:04.118Z,1.85
2023-04-28T08:49:51.590Z,2.45
2023-04-28T08:52:18.787Z,2.00
2023-04-28T08:54:47.273Z,1.88
2023-04-28T08:57:13.997Z,2.13
2023-04-28T08:59:41.366Z,3.88
2023-04-28T09:02:11.325Z,4.80
2023-04-28T09:04:38.273Z,4.55
2023-04-28T09:07:10.596Z,4.03
2023-04-28T09:09:39.194Z,3.63
2023-04-28T09:12:05.953Z,3.53
2023-04-28T09:14:34.385Z,2.88
2023-04-28T09:17:01.469Z,2.00
2023-04-28T09:19:34.556Z,1.85
2023-04-28T09:22:07.739Z,1.42
2023-04-28T09:24:42.839Z,1.20
2023-04-28T09:27:11.998Z,1.40
2023-04-28T09:29:39.221Z,1.60
2023-04-28T09:32:15.901Z,1.35
2023-04-28T09:34:45.438Z,1.60
2023-04-28T09:37:20.052Z,2.05
2023-04-28T09:42:33.013Z,1.70
2023-04-28T09:44:59.710Z,1.55
2023-04-28T09:47:26.388Z,2.00
2023-04-28T09:49:56.550Z,2.00
2023-04-28T09:52:24.266Z,2.10
2023-04-28T09:54:51.664Z,1.88
2023-04-28T09:57:22.254Z,2.00
2023-04-28T09:59:52.878Z,2.00
2023-04-28T10:04:53.138Z,2.03
2023-04-28T10:07:20.823Z,1.67
2023-04-28T10:09:50.217Z,1.90
2023-04-28T10:12:21.007Z,1.15
2023-04-28T10:14:50.267Z,1.40
2023-04-28T10:17:17.826Z,1.25
2023-04-28T10:19:45.709Z,1.98
2023-04-28T10:22:12.405Z,2.10
2023-04-28T10:24:51.773Z,1.60
2023-04-28T10:27:18.627Z,1.92
2023-04-28T10:29:45.299Z,1.90
2023-04-28T10:32:18.869Z,2.05
2023-04-28T10:34:45.622Z,2.42
2023-04-28T10:37:14.842Z,1.90
2023-04-28T10:39:42.182Z,1.70
2023-04-28T10:42:27.262Z,2.20
2023-04-28T10:47:20.683Z,1.95
2023-04-28T10:49:59.516Z,2.40
2023-04-28T10:52:38.482Z,2.10
2023-04-28T10:55:22.565Z,2.85
2023-04-28T10:58:09.242Z,2.40
2023-04-28T11:00:36.230Z,2.20
2023-04-28T11:03:02.968Z,2.20
2023-04-28T11:05:31.925Z,2.40
2023-04-28T11:08:17.182Z,2.55
2023-04-28T11:11:02.442Z,1.85
2023-04-28T11:13:33.977Z,2.40
2023-04-28T11:16:04.506Z,2.53
2023-04-28T11:18:57.604Z,2.25
2023-04-28T11:21:24.796Z,2.50
2023-04-28T11:23:52.105Z,2.33
2023-04-28T11:26:19.373Z,2.92
2023-04-28T11:28:48.760Z,3.38
2023-04-28T11:31:24.907Z,2.50
2023-04-28T11:33:55.602Z,2.80
2023-04-28T11:36:26.421Z,2.33
2023-04-28T11:38:53.031Z,2.30
2023-04-28T11:41:19.613Z,2.45
2023-04-28T11:43:47.705Z,1.60
2023-04-28T11:46:18.488Z,2.38
2023-04-28T11:48:48.174Z,2.40
2023-04-28T11:51:42.183Z,2.33
2023-04-28T11:54:11.853Z,2.63
2023-04-28T11:56:39.631Z,2.25
2023-04-28T11:59:08.670Z,2.85
2023-04-28T12:01:37.932Z,2.60
2023-04-28T12:04:04.775Z,2.35
2023-04-28T12:06:31.326Z,2.13
2023-04-28T12:09:03.564Z,2.70
2023-04-28T12:11:31.093Z,2.80
2023-04-28T12:14:04.434Z,2.47
2023-04-28T12:16:39.323Z,2.95
2023-04-28T12:19:10.181Z,3.28
2023-04-28T12:21:40.254Z,3.33
2023-04-28T12:24:16.211Z,2.45
2023-04-28T12:26:42.775Z,2.72
2023-04-28T12:29:10.786Z,2.70
2023-04-28T12:31:50.890Z,3.53
2023-04-28T12:34:17.534Z,3.20
2023-04-28T12:36:46.359Z,2.83
2023-04-28T12:39:20.177Z,3.40
2023-04-28T12:41:46.891Z,2.80
2023-04-28T12:44:13.464Z,3.15
2023-04-28T12:46:43.044Z,3.55
2023-04-28T12:49:09.557Z,2.95
2023-04-28T12:51:38.898Z,3.42
2023-04-28T12:54:05.647Z,3.25
2023-04-28T12:56:32.311Z,3.92
2023-04-28T12:58:58.814Z,4.93
2023-04-28T13:01:29.091Z,3.00
2023-04-28T13:03:55.952Z,3.50
2023-04-28T13:06:22.590Z,2.97
2023-04-28T13:08:49.398Z,3.45
2023-04-28T13:11:22.770Z,2.65
2023-04-28T13:13:49.824Z,3.27
2023-04-28T13:16:16.535Z,3.00
2023-04-28T13:18:43.368Z,2.53
2023-04-28T13:21:09.887Z,3.50
2023-04-28T13:23:36.712Z,2.83
2023-04-28T13:26:04.429Z,2.65
2023-04-28T13:28:31.029Z,3.72
2023-04-28T13:30:57.631Z,3.30
2023-04-28T13:33:30.992Z,3.10
2023-04-28T13:35:58.593Z,3.15
2023-04-28T13:38:25.913Z,2.67
2023-04-28T13:40:53.024Z,2.90
2023-04-28T13:43:19.670Z,3.00
2023-04-28T13:45:46.538Z,2.40
2023-04-28T13:48:13.147Z,2.70
2023-04-28T13:50:39.855Z,2.38
2023-04-28T13:53:06.438Z,2.78
2023-04-28T13:55:33.064Z,1.95
2023-04-28T13:58:03.712Z,1.90
2023-04-28T14:00:32.236Z,1.95
2023-04-28T14:02:59.654Z,1.73
2023-04-28T14:05:29.728Z,1.77
2023-04-28T14:07:57.040Z,1.85
2023-04-28T14:10:23.593Z,2.10
2023-04-28T14:12:50.631Z,2.17
2023-04-28T14:15:18.078Z,2.58
2023-04-28T14:17:44.864Z,1.88
2023-04-28T14:20:11.791Z,2.80
2023-04-28T14:22:38.888Z,2.53
2023-04-28T14:25:05.595Z,2.10
2023-04-28T14:27:33.505Z,3.25
2023-04-28T14:30:00.854Z,2.30
2023-04-28T14:32:27.723Z,2.83
2023-04-28T14:34:54.196Z,2.78
2023-04-28T14:37:20.906Z,3.13
2023-04-28T14:39:48.462Z,2.40
2023-04-28T14:42:15.232Z,2.75
2023-04-28T14:44:42.018Z,3.08
2023-04-28T14:47:08.679Z,2.63
2023-04-28T14:49:35.456Z,3.15
2023-04-28T14:52:02.540Z,2.60
2023-04-28T14:54:29.071Z,2.92
2023-04-28T14:56:55.877Z,2.38
2023-04-28T14:59:22.978Z,2.63
2023-04-28T15:01:51.626Z,3.03
2023-04-28T15:04:18.537Z,3.15
2023-04-28T15:06:45.689Z,2.95
2023-04-28T15:09:12.831Z,3.55
2023-04-28T15:11:39.558Z,3.40
2023-04-28T15:14:15.056Z,3.55
2023-04-28T15:16:41.741Z,3.20
2023-04-28T15:19:08.213Z,3.30
2023-04-28T15:21:34.917Z,3.10
2023-04-28T15:24:01.610Z,3.17
2023-04-28T15:26:29.995Z,3.90
2023-04-28T15:28:56.877Z,3.08
2023-04-28T15:31:25.977Z,3.30
2023-04-28T15:33:52.732Z,3.25
2023-04-28T15:36:20.393Z,3.95
2023-04-28T15:38:51.783Z,4.18
2023-04-28T15:41:18.706Z,4.15
2023-04-28T15:43:46.207Z,3.25
2023-04-28T15:46:14.961Z,3.97
2023-04-28T15:48:41.525Z,3.40
2023-04-28T15:51:08.120Z,3.67
2023-04-28T15:53:34.664Z,4.47
2023-04-28T15:56:01.230Z,3.03
2023-04-28T15:58:27.826Z,2.95
2023-04-28T16:00:54.608Z,3.78
2023-04-28T16:03:21.394Z,3.60
2023-04-28T16:05:48.457Z,3.60
2023-04-28T16:08:17.646Z,4.38
2023-04-28T16:10:44.507Z,3.45
2023-04-28T16:13:12.330Z,3.30
2023-04-28T16:15:39.234Z,3.42
2023-04-28T16:18:05.743Z,3.90
2023-04-28T16:20:33.753Z,4.35
2023-04-28T16:23:00.378Z,4.30
2023-04-28T16:25:29.020Z,4.10
2023-04-28T16:27:55.713Z,4.00
2023-04-28T16:30:22.584Z,4.53
2023-04-28T16:32:49.172Z,3.65
2023-04-28T16:35:16.041Z,4.63
2023-04-28T16:37:43.854Z,4.38
2023-04-28T16:40:11.052Z,4.18
2023-04-28T16:42:37.961Z,4.30
2023-04-28T16:45:05.059Z,3.88
2023-04-28T16:47:31.903Z,3.75
2023-04-28T16:49:59.450Z,4.07
2023-04-28T16:52:26.476Z,4.00
2023-04-28T16:54:53.118Z,3.83
2023-04-28T16:57:19.759Z,3.55
2023-04-28T16:59:46.488Z,4.75
2023-04-28T17:02:13.013Z,3.65
2023-04-28T17:04:40.693Z,4.93
2023-04-28T17:07:07.428Z,4.57
2023-04-28T17:09:34.148Z,3.83
2023-04-28T17:12:03.862Z,4.30
2023-04-28T17:14:30.669Z,4.05
2023-04-28T17:16:57.369Z,4.95
2023-04-28T17:19:23.948Z,4.93
2023-04-28T17:21:52.879Z,4.32
2023-04-28T17:24:19.516Z,4.03
2023-04-28T17:26:46.153Z,4.13
2023-04-28T17:29:12.742Z,5.25
2023-04-28T17:31:39.572Z,4.38
2023-04-28T17:34:06.251Z,4.32
2023-04-28T17:36:33.746Z,4.68
2023-04-28T17:39:00.408Z,5.10
2023-04-28T17:41:27.217Z,5.32
2023-04-28T17:43:53.916Z,4.88
2023-04-28T17:46:21.082Z,4.78
2023-04-28T17:48:47.805Z,4.45
2023-04-28T17:51:14.488Z,5.03
2023-04-28T17:53:42.434Z,5.90
2023-04-28T17:56:09.193Z,5.28
2023-04-28T17:58:36.626Z,5.60
2023-04-28T18:01:03.972Z,4.75
2023-04-28T18:03:32.563Z,5.20
2023-04-28T18:05:59.555Z,4.32
2023-04-28T18:08:26.449Z,4.07
2023-04-28T18:10:53.242Z,4.88
2023-04-28T18:13:19.971Z,5.13
2023-04-28T18:15:46.774Z,4.75
2023-04-28T18:18:13.446Z,4.75
2023-04-28T18:20:41.600Z,5.32
2023-04-28T18:23:08.925Z,4.72
2023-04-28T18:25:37.138Z,5.07
2023-04-28T18:28:03.951Z,5.45
2023-04-28T18:30:39.275Z,5.78
2023-04-28T18:33:09.467Z,6.65
2023-04-28T18:35:39.361Z,6.82
2023-04-28T18:38:06.131Z,7.70
2023-04-28T18:40:34.279Z,6.97
2023-04-28T18:43:02.355Z,8.02
2023-04-28T18:45:33.013Z,7.43
2023-04-28T18:48:03.213Z,7.63
2023-04-28T18:50:30.696Z,9.98
2023-04-28T18:52:57.778Z,11.23
2023-04-28T18:55:24.521Z,13.93
2023-04-28T18:57:51.766Z,14.18
2023-04-28T19:00:19.098Z,13.60
2023-04-28T19:02:45.792Z,12.25
2023-04-28T19:05:13.174Z,14.35
2023-04-28T19:07:39.700Z,13.63
2023-04-28T19:10:07.024Z,15.75
2023-04-28T19:12:33.519Z,18.15
2023-04-28T19:15:00.544Z,18.42
2023-04-28T19:17:27.394Z,19.83
2023-04-28T19:19:56.974Z,20.08
2023-04-28T19:22:33.383Z,19.95
2023-04-28T19:25:00.431Z,20.30
2023-04-28T19:27:31.161Z,17.90
2023-04-28T19:29:58.532Z,18.90
2023-04-28T19:32:25.195Z,17.55
2023-04-28T19:34:52.074Z,20.05
2023-04-28T19:37:18.959Z,18.52
2023-04-28T19:39:46.199Z,19.33
2023-04-28T19:42:12.920Z,19.27
2023-04-28T19:44:39.795Z,19.00
2023-04-28T19:47:07.375Z,19.52
2023-04-28T19:49:34.568Z,19.02
2023-04-28T19:52:01.402Z,19.25
2023-04-28T19:54:28.386Z,20.65
2023-04-28T19:56:55.633Z,19.83
2023-04-28T19:59:22.586Z,19.17
2023-04-28T20:01:50.093Z,20.05
2023-04-28T20:04:17.615Z,19.30
2023-04-28T20:06:44.606Z,19.73
2023-04-28T20:09:11.238Z,19.98
2023-04-28T20:11:38.063Z,19.17
2023-04-28T20:14:04.892Z,18.55
2023-04-28T20:16:31.791Z,19.15
2023-04-28T20:18:58.311Z,20.63
2023-04-28T20:21:26.536Z,18.95
2023-04-28T20:23:53.123Z,19.00
2023-04-28T20:26:20.720Z,19.02
2023-04-28T20:28:50.695Z,19.08
2023-04-28T20:31:20.187Z,21.35
2023-04-28T20:33:46.770Z,20.20
2023-04-28T20:36:13.597Z,20.92
2023-04-28T20:38:40.284Z,20.67
2023-04-28T20:41:07.764Z,20.25
2023-04-28T20:43:34.649Z,19.67
2023-04-28T20:46:01.448Z,20.27
2023-04-28T20:48:29.138Z,20.98
2023-04-28T20:50:56.638Z,20.40
2023-04-28T20:53:23.212Z,20.55
2023-04-28T20:55:50.020Z,20.15
2023-04-28T20:58:17.913Z,19.95
2023-04-28T21:00:44.652Z,19.77
2023-04-28T21:03:15.860Z,20.05
2023-04-28T21:05:43.792Z,17.95
2023-04-28T21:08:19.352Z,17.33
2023-04-28T21:10:46.431Z,15.98
2023-04-28T21:13:13.167Z,15.82
2023-04-28T21:15:49.358Z,15.70
2023-04-28T21:18:16.129Z,17.02
2023-04-28T21:20:43.519Z,16.25
2023-04-28T21:23:10.191Z,15.70
2023-04-28T21:25:36.980Z,16.33
2023-04-28T21:28:09.029Z,15.50
2023-04-28T21:30:37.153Z,15.80
2023-04-28T21:33:04.138Z,15.15
2023-04-28T21:35:30.845Z,16.55
2023-04-28T21:37:57.615Z,15.70
2023-04-28T21:40:24.191Z,16.35
2023-04-28T21:42:51.080Z,16.05
2023-04-28T21:45:17.742Z,16.45
2023-04-28T21:47:44.541Z,16.60
2023-04-28T21:50:11.585Z,16.70
2023-04-28T21:52:38.637Z,16.52
2023-04-28T21:55:05.586Z,16.33
2023-04-28T21:57:32.897Z,17.73
2023-04-28T21:59:59.458Z,17.20
2023-04-28T22:02:26.590Z,16.15
2023-04-28T22:04:53.814Z,17.60
2023-04-28T22:07:20.418Z,16.88
2023-04-28T22:09:47.403Z,17.75
2023-04-28T22:12:14.357Z,17.35
2023-04-28T22:14:41.566Z,18.30
2023-04-28T22:17:08.362Z,18.13
2023-04-28T22:19:34.912Z,18.23
2023-04-28T22:22:01.406Z,18.75
2023-04-28T22:24:28.022Z,19.48
2023-04-28T22:26:55.088Z,18.15
2023-04-28T22:29:22.050Z,19.80
2023-04-28T22:31:48.789Z,18.88
2023-04-28T22:34:16.468Z,19.40
2023-04-28T22:36:43.003Z,18.80
2023-04-28T22:39:09.621Z,18.23
2023-04-28T22:41:36.282Z,19.55
2023-04-28T22:44:02.850Z,19.98
2023-04-28T22:46:30.116Z,20.70
2023-04-28T22:48:56.801Z,19.90
2023-04-28T22:51:23.721Z,20.13
2023-04-28T22:53:50.248Z,20.08
2023-04-28T22:56:16.736Z,20.52
2023-04-28T22:58:43.283Z,21.52
2023-04-28T23:01:09.932Z,22.65
2023-04-28T23:03:38.447Z,22.73
2023-04-28T23:06:05.303Z,22.95
2023-04-28T23:08:32.467Z,22.13
2023-04-28T23:10:58.939Z,23.48
2023-04-28T23:13:25.524Z,23.15
2023-04-28T23:15:52.358Z,21.33
2023-04-28T23:18:19.102Z,22.60
2023-04-28T23:20:49.167Z,21.48
2023-04-28T23:23:16.165Z,21.20
2023-04-28T23:25:42.981Z,21.25
2023-04-28T23:28:10.285Z,20.45
2023-04-28T23:30:36.842Z,18.10
2023-04-28T23:33:03.848Z,17.17
2023-04-28T23:35:31.378Z,16.02
2023-04-28T23:37:58.155Z,14.55
2023-04-28T23:40:24.774Z,15.07
2023-04-28T23:42:51.402Z,15.05
2023-04-28T23:45:18.017Z,14.40
2023-04-28T23:47:44.690Z,13.35
2023-04-28T23:50:11.552Z,14.15
2023-04-28T23:52:40.451Z,13.63
2023-04-28T23:55:09.791Z,13.43
2023-04-28T23:57:37.272Z,13.13
